createdAt,value
2018-11-02T00:00:51.845Z,2.73
2018-11-02T00:01:55.241Z,2.90
2018-11-02T00:02:58.632Z,2.90
2018-11-02T00:04:02.039Z,2.37
2018-11-02T00:05:06.086Z,2.07
2018-11-02T00:06:09.553Z,2.57
2018-11-02T00:07:12.932Z,2.90
2018-11-02T00:08:16.439Z,2.40
2018-11-02T00:09:19.923Z,2.60
2018-11-02T00:10:23.328Z,2.07
2018-11-02T00:11:26.750Z,2.60
2018-11-02T00:12:30.199Z,3.10
2018-11-02T00:13:33.556Z,2.63
2018-11-02T00:14:36.993Z,3.07
2018-11-02T00:15:40.494Z,2.57
2018-11-02T00:16:43.870Z,2.20
2018-11-02T00:17:47.279Z,2.40
2018-11-02T00:18:50.714Z,2.73
2018-11-02T00:19:54.145Z,2.40
2018-11-02T00:20:57.608Z,2.80
2018-11-02T00:22:02.852Z,2.60
2018-11-02T00:23:06.331Z,2.47
2018-11-02T00:24:09.759Z,2.37
2018-11-02T00:25:13.322Z,3.10
2018-11-02T00:26:16.786Z,2.43
2018-11-02T00:27:20.213Z,2.20
2018-11-02T00:28:23.642Z,2.57
2018-11-02T00:29:27.084Z,2.60
2018-11-02T00:30:30.501Z,2.27
2018-11-02T00:31:33.931Z,2.90
2018-11-02T00:32:37.412Z,2.43
2018-11-02T00:33:40.805Z,2.50
2018-11-02T00:34:44.197Z,2.67
2018-11-02T00:35:47.627Z,2.30
2018-11-02T00:36:51.079Z,2.40
2018-11-02T00:37:54.528Z,2.43
2018-11-02T00:38:57.918Z,2.60
2018-11-02T00:40:01.343Z,2.80
2018-11-02T00:41:04.857Z,2.63
2018-11-02T00:42:08.283Z,2.50
2018-11-02T00:43:11.664Z,2.43
2018-11-02T00:44:15.211Z,2.00
2018-11-02T00:45:18.641Z,3.00
2018-11-02T00:46:22.042Z,2.10
2018-11-02T00:47:25.503Z,2.60
2018-11-02T00:48:28.940Z,2.40
2018-11-02T00:49:32.362Z,2.07
2018-11-02T00:50:35.794Z,2.67
2018-11-02T00:51:39.217Z,2.10
2018-11-02T00:52:42.608Z,2.70
2018-11-02T00:53:45.998Z,2.63
2018-11-02T00:54:49.401Z,2.10
2018-11-02T00:55:52.821Z,2.13
2018-11-02T00:56:56.313Z,2.23
2018-11-02T00:57:59.705Z,2.43
2018-11-02T00:59:03.168Z,2.13
2018-11-02T01:00:09.182Z,2.33
2018-11-02T01:01:12.578Z,2.27
2018-11-02T01:02:16.001Z,2.17
2018-11-02T01:03:19.516Z,2.53
2018-11-02T01:04:22.933Z,2.30
2018-11-02T01:05:26.422Z,2.53
2018-11-02T01:06:30.164Z,2.40
2018-11-02T01:07:33.669Z,2.23
2018-11-02T01:08:37.061Z,2.23
2018-11-02T01:09:40.503Z,2.07
2018-11-02T01:10:43.916Z,2.00
2018-11-02T01:11:47.325Z,2.60
2018-11-02T01:12:50.741Z,2.17
2018-11-02T01:13:54.165Z,2.40
2018-11-02T01:14:57.554Z,2.50
2018-11-02T01:16:00.974Z,1.97
2018-11-02T01:17:04.482Z,2.23
2018-11-02T01:18:08.528Z,2.50
2018-11-02T01:19:11.911Z,2.73
2018-11-02T01:20:15.312Z,2.10
2018-11-02T01:21:18.759Z,2.20
2018-11-02T01:22:22.243Z,2.17
2018-11-02T01:23:25.643Z,2.03
2018-11-02T01:24:29.267Z,2.00
2018-11-02T01:25:33.505Z,2.20
2018-11-02T01:26:36.932Z,2.00
2018-11-02T01:27:40.335Z,2.30
2018-11-02T01:28:43.776Z,2.00
2018-11-02T01:29:47.201Z,2.33
2018-11-02T01:30:50.603Z,1.97
2018-11-02T01:31:54.040Z,1.83
2018-11-02T01:32:57.467Z,2.43
2018-11-02T01:34:00.908Z,2.00
2018-11-02T01:35:04.429Z,1.90
2018-11-02T01:36:09.608Z,2.27
2018-11-02T01:37:13.014Z,1.97
2018-11-02T01:38:16.424Z,2.40
2018-11-02T01:39:19.907Z,1.97
2018-11-02T01:40:23.370Z,2.47
2018-11-02T01:41:26.859Z,2.13
2018-11-02T01:42:30.273Z,2.00
2018-11-02T01:43:33.864Z,2.57
2018-11-02T01:44:37.400Z,1.97
2018-11-02T01:45:40.892Z,1.93
2018-11-02T01:46:44.496Z,2.10
2018-11-02T01:47:47.918Z,2.20
2018-11-02T01:48:51.343Z,2.30
2018-11-02T01:49:54.776Z,2.47
2018-11-02T01:50:58.415Z,1.97
2018-11-02T01:52:01.865Z,2.30
2018-11-02T01:53:05.517Z,1.93
2018-11-02T01:54:08.922Z,2.07
2018-11-02T01:55:12.367Z,1.90
2018-11-02T01:56:15.773Z,2.50
2018-11-02T01:57:19.193Z,2.20
2018-11-02T01:58:22.724Z,2.07
2018-11-02T01:59:26.155Z,2.07
2018-11-02T02:00:29.578Z,2.00
2018-11-02T02:01:32.989Z,2.20
2018-11-02T02:02:36.412Z,1.80
2018-11-02T02:03:39.797Z,1.87
2018-11-02T02:04:43.205Z,2.03
2018-11-02T02:05:46.633Z,1.60
2018-11-02T02:06:50.052Z,1.87
2018-11-02T02:07:53.467Z,1.73
2018-11-02T02:08:56.898Z,1.80
2018-11-02T02:10:00.306Z,1.77
2018-11-02T02:11:03.812Z,1.67
2018-11-02T02:12:07.263Z,1.80
2018-11-02T02:13:10.662Z,2.20
2018-11-02T02:14:14.055Z,1.80
2018-11-02T02:15:17.465Z,2.03
2018-11-02T02:16:20.890Z,1.90
2018-11-02T02:17:24.280Z,1.60
2018-11-02T02:18:27.856Z,2.17
2018-11-02T02:19:31.324Z,1.93
2018-11-02T02:20:34.756Z,1.70
2018-11-02T02:21:38.192Z,1.80
2018-11-02T02:22:41.617Z,1.70
2018-11-02T02:23:44.998Z,1.83
2018-11-02T02:24:48.417Z,1.70
2018-11-02T02:25:51.794Z,1.70
2018-11-02T02:26:55.221Z,1.60
2018-11-02T02:27:58.656Z,1.67
2018-11-02T02:29:02.063Z,1.60
2018-11-02T02:30:07.705Z,1.97
2018-11-02T02:31:11.108Z,1.60
2018-11-02T02:32:14.559Z,2.00
2018-11-02T02:33:17.960Z,1.63
2018-11-02T02:34:21.388Z,1.70
2018-11-02T02:35:24.790Z,2.20
2018-11-02T02:36:28.215Z,1.90
2018-11-02T02:37:32.562Z,1.67
2018-11-02T02:38:36.008Z,1.97
2018-11-02T02:39:39.418Z,1.57
2018-11-02T02:40:42.853Z,1.97
2018-11-02T02:41:46.234Z,1.90
2018-11-02T02:42:49.624Z,1.70
2018-11-02T02:43:53.117Z,1.60
2018-11-02T02:44:56.501Z,1.70
2018-11-02T02:45:59.888Z,1.80
2018-11-02T02:47:03.336Z,1.50
2018-11-02T02:48:07.066Z,1.90
2018-11-02T02:49:10.452Z,1.73
2018-11-02T02:50:14.647Z,1.70
2018-11-02T02:51:18.050Z,1.80
2018-11-02T02:52:21.477Z,1.70
2018-11-02T02:53:24.899Z,1.90
2018-11-02T02:54:28.316Z,1.80
2018-11-02T02:55:31.683Z,1.80
2018-11-02T02:56:35.110Z,1.70
2018-11-02T02:57:38.827Z,1.63
2018-11-02T02:58:42.220Z,2.20
2018-11-02T02:59:45.628Z,2.07
2018-11-02T03:00:49.029Z,1.67
2018-11-02T03:01:52.417Z,1.50
2018-11-02T03:02:55.809Z,1.33
2018-11-02T03:03:59.248Z,1.47
2018-11-02T03:05:02.667Z,1.80
2018-11-02T03:06:06.124Z,1.60
2018-11-02T03:07:09.561Z,1.57
2018-11-02T03:08:12.964Z,1.50
2018-11-02T03:09:16.378Z,1.73
2018-11-02T03:10:19.872Z,1.50
2018-11-02T03:11:23.244Z,1.83
2018-11-02T03:12:26.692Z,1.50
2018-11-02T03:13:30.066Z,1.63
2018-11-02T03:14:33.543Z,1.80
2018-11-02T03:15:36.945Z,1.57
2018-11-02T03:16:40.388Z,1.80
2018-11-02T03:17:43.800Z,1.60
2018-11-02T03:18:47.723Z,1.50
2018-11-02T03:19:51.089Z,2.07
2018-11-02T03:20:54.516Z,1.70
2018-11-02T03:21:58.007Z,1.80
2018-11-02T03:23:01.426Z,1.40
2018-11-02T03:24:04.810Z,2.27
2018-11-02T03:25:09.447Z,1.93
2018-11-02T03:26:12.853Z,1.70
2018-11-02T03:27:16.279Z,1.70
2018-11-02T03:28:19.715Z,1.63
2018-11-02T03:29:23.102Z,1.90
2018-11-02T03:30:26.490Z,1.90
2018-11-02T03:31:29.934Z,1.70
2018-11-02T03:32:33.375Z,1.67
2018-11-02T03:33:36.775Z,2.17
2018-11-02T03:34:40.360Z,1.57
2018-11-02T03:35:43.823Z,2.00
2018-11-02T03:36:47.221Z,1.67
2018-11-02T03:37:50.604Z,1.47
2018-11-02T03:38:54.004Z,1.70
2018-11-02T03:39:57.397Z,1.90
2018-11-02T03:41:00.937Z,1.63
2018-11-02T03:42:04.392Z,1.50
2018-11-02T03:43:07.876Z,1.37
2018-11-02T03:44:11.416Z,1.80
2018-11-02T03:45:14.988Z,1.20
2018-11-02T03:46:18.410Z,1.57
2018-11-02T03:47:21.820Z,1.80
2018-11-02T03:48:25.246Z,1.67
2018-11-02T03:49:28.636Z,1.63
2018-11-02T03:50:32.527Z,1.90
2018-11-02T03:51:36.027Z,2.03
2018-11-02T03:52:39.647Z,1.70
2018-11-02T03:53:43.104Z,1.40
2018-11-02T03:54:46.539Z,1.90
2018-11-02T03:55:50.184Z,1.37
2018-11-02T03:56:53.639Z,1.57
2018-11-02T03:57:57.045Z,1.30
2018-11-02T03:59:00.454Z,1.50
2018-11-02T04:00:05.056Z,1.50
2018-11-02T04:01:08.542Z,1.80
2018-11-02T04:02:11.942Z,1.50
2018-11-02T04:03:15.371Z,1.97
2018-11-02T04:04:18.820Z,1.80
2018-11-02T04:05:22.250Z,1.53
2018-11-02T04:06:25.671Z,1.23
2018-11-02T04:07:29.105Z,1.37
2018-11-02T04:08:32.559Z,1.67
2018-11-02T04:09:36.132Z,1.73
2018-11-02T04:10:39.506Z,1.47
2018-11-02T04:11:42.886Z,1.53
2018-11-02T04:12:46.368Z,1.20
2018-11-02T04:13:49.754Z,1.77
2018-11-02T04:14:53.173Z,1.60
2018-11-02T04:15:56.625Z,1.97
2018-11-02T04:17:00.023Z,1.30
2018-11-02T04:18:03.452Z,1.23
2018-11-02T04:19:07.216Z,1.50
2018-11-02T04:20:11.015Z,1.20
2018-11-02T04:21:14.473Z,1.20
2018-11-02T04:22:17.919Z,1.40
2018-11-02T04:23:21.512Z,1.50
2018-11-02T04:24:25.078Z,1.53
2018-11-02T04:25:28.556Z,1.57
2018-11-02T04:26:32.040Z,1.10
2018-11-02T04:27:35.474Z,1.50
2018-11-02T04:28:39.071Z,1.53
2018-11-02T04:29:42.479Z,1.60
2018-11-02T04:30:46.012Z,2.00
2018-11-02T04:31:49.399Z,1.30
2018-11-02T04:32:52.842Z,1.20
2018-11-02T04:33:56.250Z,1.40
2018-11-02T04:34:59.687Z,1.60
2018-11-02T04:36:03.067Z,1.77
2018-11-02T04:37:06.523Z,1.70
2018-11-02T04:38:10.475Z,1.50
2018-11-02T04:39:14.961Z,1.20
2018-11-02T04:40:18.382Z,1.30
2018-11-02T04:41:21.873Z,1.30
2018-11-02T04:42:25.330Z,1.53
2018-11-02T04:43:28.700Z,1.40
2018-11-02T04:44:32.094Z,1.30
2018-11-02T04:45:38.560Z,1.30
2018-11-02T04:46:42.060Z,1.30
2018-11-02T04:47:45.473Z,1.23
2018-11-02T04:48:48.873Z,1.30
2018-11-02T04:49:52.595Z,1.40
2018-11-02T04:50:56.084Z,1.47
2018-11-02T04:51:59.465Z,1.13
2018-11-02T04:53:03.704Z,1.57
2018-11-02T04:54:07.136Z,1.23
2018-11-02T04:55:10.753Z,1.40
2018-11-02T04:56:14.178Z,1.30
2018-11-02T04:57:17.594Z,1.20
2018-11-02T04:58:21.184Z,1.30
2018-11-02T04:59:24.595Z,1.70
2018-11-02T05:00:27.986Z,1.57
2018-11-02T05:01:31.496Z,1.40
2018-11-02T05:02:34.916Z,1.47
2018-11-02T05:03:38.348Z,1.23
2018-11-02T05:04:41.806Z,1.40
2018-11-02T05:05:45.236Z,1.33
2018-11-02T05:06:48.660Z,1.80
2018-11-02T05:07:52.130Z,1.10
2018-11-02T05:08:55.535Z,1.20
2018-11-02T05:09:59.016Z,1.17
2018-11-02T05:11:02.482Z,1.60
2018-11-02T05:12:06.586Z,1.80
2018-11-02T05:13:09.969Z,1.30
2018-11-02T05:14:13.362Z,1.40
2018-11-02T05:15:16.820Z,1.30
2018-11-02T05:16:20.271Z,1.37
2018-11-02T05:17:23.712Z,1.63
2018-11-02T05:18:27.147Z,1.50
2018-11-02T05:19:30.676Z,1.10
2018-11-02T05:20:34.084Z,1.40
2018-11-02T05:21:37.535Z,1.33
2018-11-02T05:22:40.978Z,1.60
2018-11-02T05:23:44.356Z,1.20
2018-11-02T05:24:47.919Z,1.30
2018-11-02T05:25:51.384Z,1.60
2018-11-02T05:26:54.805Z,1.60
2018-11-02T05:27:58.308Z,1.57
2018-11-02T05:29:01.729Z,1.23
2018-11-02T05:30:06.011Z,1.17
2018-11-02T05:31:09.461Z,1.30
2018-11-02T05:32:12.931Z,1.50
2018-11-02T05:33:16.325Z,1.37
2018-11-02T05:34:19.719Z,1.30
2018-11-02T05:35:23.304Z,1.30
2018-11-02T05:36:26.747Z,1.40
2018-11-02T05:37:30.232Z,1.30
2018-11-02T05:38:33.668Z,1.77
2018-11-02T05:39:37.283Z,1.50
2018-11-02T05:40:40.762Z,1.47
2018-11-02T05:41:44.257Z,1.23
2018-11-02T05:42:47.921Z,1.27
2018-11-02T05:43:51.447Z,1.40
2018-11-02T05:44:54.860Z,1.20
2018-11-02T05:45:58.315Z,1.27
2018-11-02T05:47:01.795Z,1.70
2018-11-02T05:48:05.608Z,1.50
2018-11-02T05:49:09.112Z,1.20
2018-11-02T05:50:12.514Z,1.07
2018-11-02T05:51:15.959Z,1.13
2018-11-02T05:52:19.354Z,1.37
2018-11-02T05:53:22.771Z,1.30
2018-11-02T05:54:26.221Z,2.13
2018-11-02T05:55:29.571Z,1.00
2018-11-02T05:56:33.004Z,1.10
2018-11-02T05:57:36.432Z,1.47
2018-11-02T05:58:39.826Z,1.70
2018-11-02T05:59:43.217Z,1.10
2018-11-02T06:00:46.662Z,1.57
2018-11-02T06:01:50.026Z,1.37
2018-11-02T06:02:53.421Z,2.00
2018-11-02T06:03:56.833Z,1.87
2018-11-02T06:05:00.249Z,1.63
2018-11-02T06:06:03.717Z,2.20
2018-11-02T06:07:07.272Z,2.10
2018-11-02T06:08:10.721Z,2.70
2018-11-02T06:09:14.261Z,2.53
2018-11-02T06:10:17.771Z,3.70
2018-11-02T06:11:21.178Z,3.20
2018-11-02T06:12:24.752Z,3.10
2018-11-02T06:13:28.172Z,4.60
2018-11-02T06:14:31.660Z,3.67
2018-11-02T06:15:36.182Z,3.57
2018-11-02T06:16:40.474Z,3.10
2018-11-02T06:17:43.946Z,3.40
2018-11-02T06:18:47.364Z,3.30
2018-11-02T06:19:50.852Z,3.07
2018-11-02T06:20:55.907Z,3.23
2018-11-02T06:21:59.460Z,3.67
2018-11-02T06:23:03.040Z,3.70
2018-11-02T06:24:07.201Z,3.10
2018-11-02T06:25:10.734Z,3.37
2018-11-02T06:26:14.151Z,3.30
2018-11-02T06:27:17.775Z,3.07
2018-11-02T06:28:21.384Z,3.53
2018-11-02T06:29:24.811Z,3.20
2018-11-02T06:30:28.212Z,3.13
2018-11-02T06:31:31.744Z,3.40
2018-11-02T06:32:35.208Z,3.40
2018-11-02T06:33:38.644Z,3.13
2018-11-02T06:34:42.166Z,3.70
2018-11-02T06:35:45.588Z,3.60
2018-11-02T06:36:49.165Z,3.77
2018-11-02T06:37:52.593Z,3.00
2018-11-02T06:38:56.167Z,3.20
2018-11-02T06:39:59.553Z,2.73
2018-11-02T06:41:03.251Z,3.70
2018-11-02T06:42:06.824Z,3.10
2018-11-02T06:43:10.776Z,3.50
2018-11-02T06:44:14.200Z,3.00
2018-11-02T06:45:17.736Z,3.17
2018-11-02T06:46:21.499Z,3.33
2018-11-02T06:47:24.907Z,3.07
2018-11-02T06:48:28.512Z,3.30
2018-11-02T06:49:32.020Z,3.10
2018-11-02T06:50:35.450Z,2.93
2018-11-02T06:51:38.945Z,2.60
2018-11-02T06:52:42.389Z,2.53
2018-11-02T06:53:45.824Z,2.87
2018-11-02T06:54:49.264Z,2.60
2018-11-02T06:55:52.716Z,2.60
2018-11-02T06:56:56.131Z,3.03
2018-11-02T06:57:59.556Z,3.20
2018-11-02T06:59:03.096Z,3.00
2018-11-02T07:00:09.780Z,3.13
2018-11-02T07:01:13.098Z,2.70
2018-11-02T07:02:16.879Z,3.17
2018-11-02T07:03:20.262Z,3.00
2018-11-02T07:04:23.671Z,3.17
2018-11-02T07:05:27.087Z,3.17
2018-11-02T07:06:30.522Z,3.17
2018-11-02T07:07:34.252Z,3.43
2018-11-02T07:08:37.562Z,3.10
2018-11-02T07:09:40.930Z,3.60
2018-11-02T07:10:44.343Z,3.23
2018-11-02T07:11:47.808Z,2.93
2018-11-02T07:12:51.231Z,3.10
2018-11-02T07:13:54.630Z,3.00
2018-11-02T07:14:58.082Z,2.73
2018-11-02T07:16:01.651Z,3.30
2018-11-02T07:17:05.622Z,2.87
2018-11-02T07:18:09.043Z,3.90
2018-11-02T07:19:12.483Z,3.73
2018-11-02T07:20:15.932Z,4.47
2018-11-02T07:21:19.418Z,4.00
2018-11-02T07:22:22.848Z,3.67
2018-11-02T07:23:26.241Z,3.80
2018-11-02T07:24:29.758Z,3.80
2018-11-02T07:25:33.166Z,3.43
2018-11-02T07:26:36.701Z,3.97
2018-11-02T07:27:40.156Z,3.90
2018-11-02T07:28:43.612Z,3.30
2018-11-02T07:29:47.025Z,3.90
2018-11-02T07:30:50.503Z,3.53
2018-11-02T07:31:53.936Z,3.70
2018-11-02T07:32:57.372Z,3.10
2018-11-02T07:34:00.779Z,3.53
2018-11-02T07:35:04.215Z,3.27
2018-11-02T07:36:07.647Z,3.00
2018-11-02T07:37:11.026Z,3.10
2018-11-02T07:38:14.595Z,3.13
2018-11-02T07:39:18.040Z,3.83
2018-11-02T07:40:21.795Z,3.93
2018-11-02T07:41:25.188Z,3.57
2018-11-02T07:42:28.627Z,2.80
2018-11-02T07:43:32.128Z,3.07
2018-11-02T07:44:35.515Z,3.27
2018-11-02T07:45:38.906Z,3.53
2018-11-02T07:46:42.374Z,3.37
2018-11-02T07:47:45.826Z,2.73
2018-11-02T07:48:49.239Z,2.90
2018-11-02T07:49:52.842Z,3.07
2018-11-02T07:50:56.700Z,2.37
2018-11-02T07:52:00.297Z,3.10
2018-11-02T07:53:03.798Z,3.37
2018-11-02T07:54:07.218Z,2.87
2018-11-02T07:55:12.694Z,2.93
2018-11-02T07:56:16.099Z,2.40
2018-11-02T07:57:19.473Z,2.53
2018-11-02T07:58:22.915Z,3.10
2018-11-02T07:59:26.425Z,2.27
2018-11-02T08:00:29.918Z,3.03
2018-11-02T08:01:33.340Z,3.17
2018-11-02T08:02:36.787Z,2.90
2018-11-02T08:03:40.251Z,2.77
2018-11-02T08:04:43.832Z,2.70
2018-11-02T08:05:47.279Z,2.53
2018-11-02T08:06:50.672Z,2.63
2018-11-02T08:07:54.276Z,2.57
2018-11-02T08:08:57.692Z,3.90
2018-11-02T08:10:01.141Z,2.37
2018-11-02T08:11:04.811Z,2.53
2018-11-02T08:12:08.236Z,2.10
2018-11-02T08:13:11.658Z,2.40
2018-11-02T08:14:15.093Z,2.67
2018-11-02T08:15:18.505Z,2.50
2018-11-02T08:16:22.067Z,2.80
2018-11-02T08:17:25.545Z,2.50
2018-11-02T08:18:28.934Z,2.10
2018-11-02T08:19:32.595Z,2.70
2018-11-02T08:20:36.001Z,3.00
2018-11-02T08:21:39.537Z,2.60
2018-11-02T08:22:43.505Z,2.23
2018-11-02T08:23:46.965Z,2.43
2018-11-02T08:24:50.408Z,2.20
2018-11-02T08:25:53.900Z,2.60
2018-11-02T08:26:57.401Z,2.60
2018-11-02T08:28:00.868Z,2.20
2018-11-02T08:29:05.853Z,2.60
2018-11-02T08:30:10.572Z,2.40
2018-11-02T08:31:14.422Z,2.40
2018-11-02T08:32:18.260Z,2.40
2018-11-02T08:33:22.095Z,2.10
2018-11-02T08:34:25.497Z,2.47
2018-11-02T08:35:29.125Z,2.43
2018-11-02T08:36:32.590Z,2.67
2018-11-02T08:37:35.993Z,2.23
2018-11-02T08:38:40.199Z,2.27
2018-11-02T08:39:45.054Z,2.30
2018-11-02T08:40:48.625Z,2.17
2018-11-02T08:41:52.106Z,2.20
2018-11-02T08:42:55.555Z,2.40
2018-11-02T08:43:59.152Z,2.17
2018-11-02T08:45:02.635Z,1.90
2018-11-02T08:46:06.982Z,2.23
2018-11-02T08:47:10.461Z,2.40
2018-11-02T08:48:14.225Z,1.73
2018-11-02T08:49:17.670Z,2.33
2018-11-02T08:50:21.075Z,2.33
2018-11-02T08:51:24.482Z,2.00
2018-11-02T08:52:27.997Z,2.13
2018-11-02T08:53:31.362Z,1.90
2018-11-02T08:54:34.884Z,1.70
2018-11-02T08:55:38.252Z,2.30
2018-11-02T08:56:41.641Z,2.07
2018-11-02T08:57:45.211Z,2.40
2018-11-02T08:58:48.790Z,2.30
2018-11-02T08:59:52.123Z,2.20
2018-11-02T09:00:55.512Z,2.30
2018-11-02T09:01:59.258Z,1.90
2018-11-02T09:03:02.672Z,2.27
2018-11-02T09:04:06.182Z,2.20
2018-11-02T09:05:09.872Z,2.00
2018-11-02T09:06:13.161Z,2.13
2018-11-02T09:07:16.616Z,2.23
2018-11-02T09:08:20.075Z,2.87
2018-11-02T09:09:23.459Z,2.07
2018-11-02T09:10:26.888Z,1.70
2018-11-02T09:11:30.322Z,2.40
2018-11-02T09:12:33.770Z,2.47
2018-11-02T09:13:37.262Z,1.90
2018-11-02T09:14:40.660Z,1.80
2018-11-02T09:15:44.067Z,2.20
2018-11-02T09:16:47.524Z,1.73
2018-11-02T09:17:50.886Z,2.20
2018-11-02T09:18:54.419Z,1.93
2018-11-02T09:19:57.826Z,1.80
2018-11-02T09:21:01.225Z,1.50
2018-11-02T09:22:05.100Z,2.17
2018-11-02T09:23:08.505Z,2.30
2018-11-02T09:24:12.092Z,1.87
2018-11-02T09:25:15.529Z,2.00
2018-11-02T09:26:18.980Z,2.30
2018-11-02T09:27:22.506Z,2.40
2018-11-02T09:28:26.038Z,2.27
2018-11-02T09:29:29.549Z,2.20
2018-11-02T09:30:33.038Z,1.50
2018-11-02T09:31:36.480Z,2.00
2018-11-02T09:32:39.995Z,2.13
2018-11-02T09:33:43.910Z,1.77
2018-11-02T09:34:47.393Z,2.37
2018-11-02T09:35:50.854Z,2.10
2018-11-02T09:36:54.410Z,1.70
2018-11-02T09:37:57.974Z,2.00
2018-11-02T09:39:01.515Z,1.93
2018-11-02T09:40:06.636Z,1.70
2018-11-02T09:41:10.008Z,1.80
2018-11-02T09:42:13.445Z,1.70
2018-11-02T09:43:16.880Z,1.70
2018-11-02T09:44:20.320Z,1.90
2018-11-02T09:45:23.783Z,2.00
2018-11-02T09:46:27.356Z,2.07
2018-11-02T09:47:30.792Z,2.00
2018-11-02T09:48:34.228Z,1.90
2018-11-02T09:49:37.781Z,1.90
2018-11-02T09:50:41.499Z,1.90
2018-11-02T09:51:45.079Z,2.00
2018-11-02T09:52:48.421Z,1.70
2018-11-02T09:53:51.840Z,1.70
2018-11-02T09:54:55.637Z,2.03
2018-11-02T09:55:59.088Z,2.10
2018-11-02T09:57:02.504Z,1.67
2018-11-02T09:58:06.084Z,1.60
2018-11-02T09:59:09.549Z,2.33
2018-11-02T10:00:14.036Z,1.80
2018-11-02T10:01:17.491Z,1.73
2018-11-02T10:02:20.914Z,1.70
2018-11-02T10:03:24.365Z,1.87
2018-11-02T10:04:27.746Z,1.93
2018-11-02T10:05:31.200Z,2.00
2018-11-02T10:06:34.708Z,2.00
2018-11-02T10:07:39.183Z,1.40
2018-11-02T10:08:42.690Z,1.70
2018-11-02T10:09:46.120Z,1.63
2018-11-02T10:10:49.555Z,2.10
2018-11-02T10:11:53.135Z,2.03
2018-11-02T10:12:56.549Z,1.80
2018-11-02T10:13:59.985Z,1.97
2018-11-02T10:15:03.517Z,1.53
2018-11-02T10:16:07.549Z,1.73
2018-11-02T10:17:11.034Z,1.70
2018-11-02T10:18:14.460Z,1.70
2018-11-02T10:19:17.934Z,1.60
2018-11-02T10:20:21.387Z,1.77
2018-11-02T10:21:24.885Z,1.70
2018-11-02T10:22:28.316Z,2.03
2018-11-02T10:23:31.738Z,2.10
2018-11-02T10:24:35.124Z,1.90
2018-11-02T10:25:38.524Z,1.90
2018-11-02T10:26:42.012Z,1.97
2018-11-02T10:27:45.540Z,1.67
2018-11-02T10:28:49.024Z,1.80
2018-11-02T10:29:52.972Z,1.53
2018-11-02T10:30:56.470Z,1.60
2018-11-02T10:31:59.941Z,1.53
2018-11-02T10:33:03.541Z,1.47
2018-11-02T10:34:07.017Z,1.50
2018-11-02T10:35:10.488Z,1.50
2018-11-02T10:36:13.919Z,1.50
2018-11-02T10:37:17.334Z,1.73
2018-11-02T10:38:20.946Z,1.67
2018-11-02T10:39:24.398Z,1.60
2018-11-02T10:40:27.866Z,1.60
2018-11-02T10:41:35.802Z,1.60
2018-11-02T10:42:40.132Z,1.93
2018-11-02T10:43:43.658Z,1.53
2018-11-02T10:44:47.230Z,1.43
2018-11-02T10:45:55.960Z,1.60
2018-11-02T10:46:59.602Z,1.87
2018-11-02T10:48:04.588Z,1.50
2018-11-02T10:49:08.328Z,1.40
2018-11-02T10:50:11.784Z,1.60
2018-11-02T10:51:15.309Z,1.43
2018-11-02T10:52:18.664Z,1.37
2018-11-02T10:53:22.113Z,1.80
2018-11-02T10:54:25.553Z,1.43
2018-11-02T10:55:29.185Z,1.40
2018-11-02T10:56:32.680Z,1.50
2018-11-02T10:57:36.080Z,1.73
2018-11-02T10:58:39.511Z,1.63
2018-11-02T10:59:42.986Z,1.53
2018-11-02T11:00:51.868Z,1.90
2018-11-02T11:02:00.705Z,1.40
2018-11-02T11:03:04.355Z,1.53
2018-11-02T11:04:08.076Z,1.70
2018-11-02T11:05:11.502Z,1.30
2018-11-02T11:06:14.933Z,1.80
2018-11-02T11:07:18.338Z,1.57
2018-11-02T11:08:21.788Z,1.47
2018-11-02T11:09:25.197Z,1.70
2018-11-02T11:10:28.640Z,1.80
2018-11-02T11:11:32.172Z,1.30
2018-11-02T11:12:35.744Z,1.30
2018-11-02T11:13:39.468Z,1.50
2018-11-02T11:14:42.741Z,1.50
2018-11-02T11:15:46.282Z,1.60
2018-11-02T11:16:49.741Z,1.30
2018-11-02T11:17:53.208Z,1.60
2018-11-02T11:18:56.648Z,1.60
2018-11-02T11:20:00.151Z,1.50
2018-11-02T11:21:03.891Z,1.43
2018-11-02T11:22:07.647Z,1.40
2018-11-02T11:23:11.241Z,1.60
2018-11-02T11:24:14.673Z,1.30
2018-11-02T11:25:18.195Z,1.80
2018-11-02T11:26:21.687Z,1.70
2018-11-02T11:27:25.239Z,1.60
2018-11-02T11:28:28.696Z,1.40
2018-11-02T11:29:32.350Z,1.60
2018-11-02T11:30:35.708Z,1.43
2018-11-02T11:31:39.216Z,1.50
2018-11-02T11:32:42.666Z,1.60
2018-11-02T11:33:46.272Z,1.60
2018-11-02T11:34:50.083Z,1.83
2018-11-02T11:35:53.640Z,1.63
2018-11-02T11:36:57.182Z,1.40
2018-11-02T11:38:00.729Z,1.67
2018-11-02T11:39:06.741Z,1.50
2018-11-02T11:40:12.689Z,1.67
2018-11-02T11:41:16.305Z,1.27
2018-11-02T11:42:19.733Z,1.43
2018-11-02T11:43:23.264Z,1.50
2018-11-02T11:44:26.710Z,1.50
2018-11-02T11:45:30.207Z,1.80
2018-11-02T11:46:33.646Z,1.40
2018-11-02T11:47:37.289Z,1.40
2018-11-02T11:48:40.720Z,1.60
2018-11-02T11:49:44.174Z,1.70
2018-11-02T11:50:47.890Z,1.20
2018-11-02T11:51:51.498Z,1.40
2018-11-02T11:52:55.391Z,1.30
2018-11-02T11:53:58.914Z,1.37
2018-11-02T11:55:02.389Z,1.20
2018-11-02T11:56:07.107Z,1.47
2018-11-02T11:57:10.533Z,1.40
2018-11-02T11:58:13.996Z,1.40
2018-11-02T11:59:17.740Z,1.70
2018-11-02T12:00:22.471Z,2.13
2018-11-02T12:01:26.121Z,1.20
2018-11-02T12:02:29.599Z,1.60
2018-11-02T12:03:33.027Z,1.30
2018-11-02T12:04:36.908Z,1.50
2018-11-02T12:05:40.314Z,1.40
2018-11-02T12:06:43.748Z,1.33
2018-11-02T12:07:47.282Z,1.30
2018-11-02T12:08:50.694Z,1.30
2018-11-02T12:10:00.541Z,1.40
2018-11-02T12:11:04.402Z,1.43
2018-11-02T12:12:07.897Z,1.27
2018-11-02T12:13:11.384Z,1.33
2018-11-02T12:14:14.844Z,1.17
2018-11-02T12:15:19.481Z,1.50
2018-11-02T12:16:22.970Z,1.50
2018-11-02T12:17:26.382Z,1.30
2018-11-02T12:18:29.846Z,1.77
2018-11-02T12:19:33.289Z,1.23
2018-11-02T12:20:36.730Z,1.40
2018-11-02T12:21:40.225Z,1.77
2018-11-02T12:22:44.368Z,1.47
2018-11-02T12:23:47.982Z,1.37
2018-11-02T12:24:51.424Z,1.47
2018-11-02T12:25:54.854Z,1.50
2018-11-02T12:26:58.287Z,1.47
2018-11-02T12:28:01.921Z,1.33
2018-11-02T12:29:05.560Z,1.20
2018-11-02T12:30:11.632Z,1.20
2018-11-02T12:31:15.100Z,1.40
2018-11-02T12:32:18.499Z,1.20
2018-11-02T12:33:22.105Z,1.23
2018-11-02T12:34:25.503Z,1.17
2018-11-02T12:35:28.960Z,1.20
2018-11-02T12:36:33.218Z,1.70
2018-11-02T12:37:36.988Z,1.23
2018-11-02T12:38:40.423Z,1.20
2018-11-02T12:39:43.999Z,1.13
2018-11-02T12:40:47.565Z,1.10
2018-11-02T12:41:51.107Z,1.80
2018-11-02T12:42:55.424Z,2.00
2018-11-02T12:43:58.932Z,2.00
2018-11-02T12:45:02.517Z,2.60
2018-11-02T12:46:06.029Z,3.00
2018-11-02T12:47:09.532Z,2.97
2018-11-02T12:48:13.180Z,3.23
2018-11-02T12:49:16.883Z,3.50
2018-11-02T12:50:22.834Z,2.90
2018-11-02T12:51:26.088Z,3.63
2018-11-02T12:52:29.515Z,3.40
2018-11-02T12:53:32.967Z,3.73
2018-11-02T12:54:36.435Z,4.27
2018-11-02T12:55:39.832Z,3.87
2018-11-02T12:56:43.247Z,3.80
2018-11-02T12:57:46.795Z,4.20
2018-11-02T12:58:50.244Z,4.13
2018-11-02T12:59:53.694Z,4.40
2018-11-02T13:00:57.092Z,4.13
2018-11-02T13:02:00.933Z,3.50
2018-11-02T13:03:05.620Z,3.97
2018-11-02T13:04:09.086Z,4.10
2018-11-02T13:05:12.532Z,4.10
2018-11-02T13:06:15.963Z,4.20
2018-11-02T13:07:19.362Z,3.77
2018-11-02T13:08:22.777Z,3.47
2018-11-02T13:09:26.332Z,3.83
2018-11-02T13:10:29.786Z,4.00
2018-11-02T13:11:33.423Z,3.60
2018-11-02T13:12:37.701Z,3.73
2018-11-02T13:13:41.522Z,3.67
2018-11-02T13:14:45.246Z,3.73
2018-11-02T13:15:48.690Z,3.50
2018-11-02T13:16:52.237Z,3.70
2018-11-02T13:17:55.648Z,3.30
2018-11-02T13:18:59.631Z,3.07
2018-11-02T13:20:03.394Z,3.60
2018-11-02T13:21:07.069Z,2.97
2018-11-02T13:22:11.081Z,3.00
2018-11-02T13:23:14.613Z,3.13
2018-11-02T13:24:18.179Z,2.70
2018-11-02T13:25:22.545Z,2.67
2018-11-02T13:26:26.056Z,3.23
2018-11-02T13:27:29.571Z,2.70
2018-11-02T13:28:33.243Z,3.07
2018-11-02T13:29:36.707Z,2.60
2018-11-02T13:30:40.206Z,2.93
2018-11-02T13:31:43.606Z,2.97
2018-11-02T13:32:47.013Z,3.40
2018-11-02T13:33:50.425Z,3.00
2018-11-02T13:34:53.834Z,2.80
2018-11-02T13:35:57.290Z,2.90
2018-11-02T13:37:01.188Z,2.20
2018-11-02T13:38:04.789Z,2.70
2018-11-02T13:39:11.588Z,2.80
2018-11-02T13:40:16.306Z,2.73
2018-11-02T13:41:20.925Z,2.90
2018-11-02T13:42:24.530Z,2.63
2018-11-02T13:43:27.982Z,3.03
2018-11-02T13:44:31.560Z,2.37
2018-11-02T13:45:34.980Z,2.50
2018-11-02T13:46:38.959Z,2.53
2018-11-02T13:47:43.120Z,2.90
2018-11-02T13:48:46.582Z,2.60
2018-11-02T13:49:50.110Z,2.60
2018-11-02T13:50:53.521Z,2.60
2018-11-02T13:51:56.971Z,2.37
2018-11-02T13:53:00.475Z,2.53
2018-11-02T13:54:04.016Z,2.50
2018-11-02T13:55:08.536Z,2.40
2018-11-02T13:56:11.990Z,2.30
2018-11-02T13:57:15.648Z,2.50
2018-11-02T13:58:19.245Z,2.37
2018-11-02T13:59:22.711Z,2.80
2018-11-02T14:00:26.803Z,2.17
2018-11-02T14:01:31.043Z,2.10
2018-11-02T14:02:36.749Z,2.13
2018-11-02T14:03:41.370Z,2.23
2018-11-02T14:04:45.724Z,2.37
2018-11-02T14:05:49.187Z,2.30
2018-11-02T14:06:53.149Z,2.73